createdAt,value
2023-01-13T00:01:07.180Z,11.70
2023-01-13T00:03:34.506Z,11.60
2023-01-13T00:06:01.640Z,10.60
2023-01-13T00:08:28.765Z,12.00
2023-01-13T00:10:55.779Z,10.60
2023-01-13T00:13:26.905Z,14.20
2023-01-13T00:16:01.185Z,13.00
2023-01-13T00:18:28.286Z,13.90
2023-01-13T00:21:23.305Z,13.30
2023-01-13T00:23:51.656Z,14.00
2023-01-13T00:26:20.810Z,13.10
2023-01-13T00:28:48.054Z,13.20
2023-01-13T00:31:19.982Z,12.60
2023-01-13T00:33:49.254Z,11.40
2023-01-13T00:36:16.376Z,12.70
2023-01-13T00:38:43.751Z,11.60
2023-01-13T00:41:12.612Z,12.70
2023-01-13T00:43:39.730Z,12.60
2023-01-13T00:46:07.922Z,12.10
2023-01-13T00:48:35.285Z,12.60
2023-01-13T00:51:04.131Z,13.10
2023-01-13T00:53:34.167Z,12.60
2023-01-13T00:56:05.517Z,10.00
2023-01-13T00:58:33.654Z,13.50
2023-01-13T01:01:02.004Z,11.80
2023-01-13T01:03:29.528Z,11.30
2023-01-13T01:05:57.418Z,11.00
2023-01-13T01:08:24.491Z,12.30
2023-01-13T01:11:00.231Z,12.60
2023-01-13T01:13:27.267Z,14.40
2023-01-13T01:15:54.300Z,12.20
2023-01-13T01:18:21.351Z,13.50
2023-01-13T01:20:48.395Z,13.00
2023-01-13T01:23:15.524Z,12.30
2023-01-13T01:25:42.551Z,11.90
2023-01-13T01:28:09.621Z,13.00
2023-01-13T01:30:39.511Z,11.70
2023-01-13T01:33:06.565Z,12.10
2023-01-13T01:35:33.631Z,13.20
2023-01-13T01:38:00.815Z,12.10
2023-01-13T01:40:27.937Z,11.50
2023-01-13T01:43:13.662Z,11.80
2023-01-13T01:45:40.712Z,11.60
2023-01-13T01:48:07.749Z,12.50
2023-01-13T01:50:35.025Z,13.40
2023-01-13T01:53:20.201Z,11.00
2023-01-13T01:55:47.596Z,11.80
2023-01-13T01:58:18.932Z,11.60
2023-01-13T02:00:46.063Z,11.40
2023-01-13T02:03:13.376Z,12.60
2023-01-13T02:05:41.431Z,12.80
2023-01-13T02:08:09.645Z,11.10
2023-01-13T02:10:36.755Z,10.20
2023-01-13T02:13:05.871Z,12.10
2023-01-13T02:15:47.839Z,11.70
2023-01-13T02:18:31.216Z,11.50
2023-01-13T02:21:17.235Z,12.30
2023-01-13T02:24:09.221Z,9.90
2023-01-13T02:27:11.692Z,11.90
2023-01-13T02:30:29.796Z,10.40
2023-01-13T02:33:12.489Z,12.20
2023-01-13T02:35:52.523Z,9.70
2023-01-13T02:38:30.361Z,10.80
2023-01-13T02:41:20.702Z,11.40
2023-01-13T02:44:06.334Z,12.00
2023-01-13T02:46:40.215Z,12.20
2023-01-13T02:49:09.035Z,12.00
2023-01-13T02:51:36.073Z,10.80
2023-01-13T02:54:09.312Z,12.40
2023-01-13T02:56:40.169Z,12.50
2023-01-13T02:59:07.239Z,12.00
2023-01-13T03:01:34.271Z,11.20
2023-01-13T03:04:12.326Z,12.20
2023-01-13T03:06:57.394Z,12.40
2023-01-13T03:09:45.501Z,13.00
2023-01-13T03:12:30.320Z,13.20
2023-01-13T03:15:01.794Z,13.20
2023-01-13T03:17:46.177Z,11.80
2023-01-13T03:20:28.038Z,12.10
2023-01-13T03:23:22.247Z,11.10
2023-01-13T03:26:13.661Z,14.70
2023-01-13T03:28:52.845Z,12.90
2023-01-13T03:31:23.476Z,10.90
2023-01-13T03:33:59.785Z,11.70
2023-01-13T03:36:26.958Z,13.00
2023-01-13T03:38:56.786Z,12.80
2023-01-13T03:41:28.161Z,11.60
2023-01-13T03:44:22.073Z,13.10
2023-01-13T03:47:08.052Z,13.40
2023-01-13T03:49:52.449Z,13.10
2023-01-13T03:52:32.075Z,12.70
2023-01-13T03:55:13.068Z,12.40
2023-01-13T03:57:46.087Z,11.20
2023-01-13T04:00:13.667Z,12.70
2023-01-13T07:08:32.148Z,14.60
2023-01-13T07:11:00.619Z,12.80
2023-01-13T07:13:46.222Z,14.80
2023-01-13T07:16:13.207Z,14.00
2023-01-13T07:18:40.192Z,13.80
2023-01-13T07:21:08.656Z,13.40
2023-01-13T07:23:37.456Z,12.80
2023-01-13T07:26:04.538Z,12.30
2023-01-13T07:28:31.734Z,15.30
2023-01-13T07:30:58.771Z,12.60
2023-01-13T07:33:25.818Z,12.80
2023-01-13T07:36:00.425Z,12.00
2023-01-13T07:38:27.468Z,12.80
2023-01-13T07:40:54.470Z,11.10
2023-01-13T07:43:33.688Z,12.10
2023-01-13T07:46:05.075Z,12.00
2023-01-13T07:48:33.030Z,10.60
2023-01-13T07:51:04.565Z,13.90
2023-01-13T07:53:31.547Z,13.30
2023-01-13T07:55:58.976Z,12.50
2023-01-13T07:58:26.081Z,15.50
2023-01-13T08:00:53.394Z,14.90
2023-01-13T08:03:20.463Z,15.50
2023-01-13T08:05:47.541Z,13.10
2023-01-13T08:08:15.172Z,16.60
2023-01-13T08:10:42.312Z,14.90
2023-01-13T08:13:22.862Z,15.20
2023-01-13T08:15:51.601Z,14.50
2023-01-13T08:18:21.371Z,12.80
2023-01-13T08:20:49.155Z,14.40
2023-01-13T10:18:20.355Z,16.10
2023-01-13T10:21:26.168Z,16.10
2023-01-13T10:24:27.458Z,13.70
2023-01-13T10:27:04.652Z,14.10
2023-01-13T10:42:16.674Z,14.80
2023-01-13T10:44:54.681Z,15.10
2023-01-13T10:47:30.002Z,13.30
2023-01-13T10:50:00.170Z,14.40
2023-01-13T10:52:29.514Z,14.40
2023-01-13T10:54:56.837Z,12.90
2023-01-13T10:57:25.403Z,13.10
2023-01-13T10:59:53.334Z,13.60
2023-01-13T11:02:27.076Z,14.60
2023-01-13T11:04:54.367Z,14.10
2023-01-13T11:07:29.119Z,13.20
2023-01-13T11:10:15.187Z,13.50
2023-01-13T11:12:57.742Z,14.80
2023-01-13T11:15:46.271Z,13.90
2023-01-13T11:18:13.295Z,13.70
2023-01-13T11:20:41.504Z,12.60
2023-01-13T11:23:27.532Z,12.60
2023-01-13T11:26:22.870Z,12.60
2023-01-13T11:29:14.554Z,12.10
2023-01-13T11:31:48.474Z,12.50
2023-01-13T11:34:32.765Z,11.30
2023-01-13T11:37:00.951Z,14.00
2023-01-13T11:39:42.346Z,12.30
2023-01-13T11:43:00.567Z,10.80
2023-01-13T11:45:44.535Z,12.40
2023-01-13T11:48:16.328Z,10.70
2023-01-13T11:51:11.549Z,11.40
2023-01-13T11:53:43.703Z,13.00
2023-01-13T11:56:29.497Z,12.20
2023-01-13T11:59:02.586Z,10.90
2023-01-13T12:01:33.676Z,13.90
2023-01-13T13:28:07.677Z,13.70
2023-01-13T13:30:39.015Z,13.10
2023-01-13T13:33:39.400Z,15.10
2023-01-13T13:36:18.612Z,14.80
2023-01-13T13:39:32.257Z,14.40
2023-01-13T13:42:28.469Z,15.20
2023-01-13T13:45:14.076Z,13.40
2023-01-13T13:47:41.045Z,13.00
2023-01-13T13:50:15.408Z,13.50
2023-01-13T13:52:56.623Z,14.30
2023-01-13T13:55:25.496Z,13.70
2023-01-13T13:57:53.845Z,12.80
2023-01-13T14:00:26.509Z,13.50
2023-01-13T14:02:54.830Z,13.00
2023-01-13T14:05:22.866Z,12.70
2023-01-13T14:07:51.836Z,13.50
2023-01-13T14:10:24.985Z,14.60
2023-01-13T14:12:52.548Z,13.60
2023-01-13T14:15:39.230Z,13.70
2023-01-13T14:18:11.594Z,12.60
2023-01-13T14:20:38.844Z,13.70
2023-01-13T14:23:06.009Z,13.10
2023-01-13T14:25:40.357Z,15.00
2023-01-13T14:28:32.537Z,13.70
2023-01-13T14:30:59.644Z,13.80
2023-01-13T14:33:44.207Z,15.50
2023-01-13T14:36:39.594Z,15.90
2023-01-13T14:39:06.519Z,16.80
2023-01-13T14:41:34.665Z,15.00
2023-01-13T14:44:03.197Z,13.60
2023-01-13T14:46:40.423Z,15.40
2023-01-13T14:49:17.534Z,12.70
2023-01-13T14:51:44.680Z,13.10
2023-01-13T14:55:06.908Z,12.90
2023-01-13T14:57:35.054Z,13.90
2023-01-13T15:00:08.195Z,13.80
2023-01-13T15:02:39.979Z,13.80
2023-01-13T15:05:19.466Z,13.70
2023-01-13T15:07:55.767Z,12.30
2023-01-13T15:10:25.377Z,12.50
2023-01-13T15:12:53.512Z,12.50
2023-01-13T15:15:24.330Z,13.40
2023-01-13T15:17:52.151Z,13.90
2023-01-13T15:20:21.048Z,11.90
2023-01-13T15:22:48.641Z,12.90
2023-01-13T15:25:15.676Z,12.40
2023-01-13T15:27:43.792Z,12.20
2023-01-13T15:30:14.984Z,15.40
2023-01-13T15:32:42.403Z,15.20
2023-01-13T15:35:16.465Z,13.40
2023-01-13T15:37:44.176Z,12.40
2023-01-13T15:40:16.269Z,11.80
2023-01-13T15:43:01.984Z,14.30
2023-01-13T15:45:47.729Z,12.00
2023-01-13T15:48:14.739Z,11.30
2023-01-13T15:50:41.737Z,12.50
2023-01-13T15:53:13.689Z,12.00
2023-01-13T15:55:42.729Z,13.40
2023-01-13T15:58:11.890Z,13.80
2023-01-13T16:00:38.891Z,12.80
2023-01-13T16:03:06.137Z,13.10
2023-01-13T16:05:33.165Z,14.50
2023-01-13T16:08:00.121Z,12.40
2023-01-13T16:10:27.860Z,14.00
2023-01-13T16:12:57.810Z,14.20
2023-01-13T16:15:26.136Z,13.40
2023-01-13T16:17:57.231Z,13.70
2023-01-13T16:20:24.496Z,14.60
2023-01-13T16:22:51.562Z,14.90
2023-01-13T16:25:27.842Z,15.00
2023-01-13T16:27:54.854Z,14.90
2023-01-13T16:30:29.303Z,15.50
2023-01-13T16:32:56.342Z,15.20
2023-01-13T16:35:23.523Z,14.80
2023-01-13T16:37:50.830Z,15.70
2023-01-13T16:40:35.517Z,15.20
2023-01-13T16:55:01.027Z,17.50
2023-01-13T16:57:27.989Z,16.80
2023-01-13T16:59:54.905Z,16.20
2023-01-13T17:02:22.444Z,16.90
2023-01-13T17:04:49.493Z,16.30
2023-01-13T17:07:16.911Z,17.90
2023-01-13T17:09:43.876Z,16.80
2023-01-13T17:12:10.999Z,19.00
2023-01-13T17:14:38.004Z,15.70
2023-01-13T17:17:05.022Z,16.30
2023-01-13T17:19:31.950Z,16.00
2023-01-13T17:21:58.912Z,17.10
2023-01-13T17:24:26.128Z,16.00
2023-01-13T17:26:53.091Z,18.40
2023-01-13T17:29:22.364Z,16.50
2023-01-13T17:31:50.196Z,18.40
2023-01-13T17:34:17.323Z,18.10
2023-01-13T17:36:44.372Z,18.10
2023-01-13T17:39:22.208Z,15.70
2023-01-13T17:41:49.888Z,16.00
2023-01-13T17:44:17.739Z,14.60
2023-01-13T17:46:44.869Z,16.50
2023-01-13T17:49:12.952Z,15.20
2023-01-13T17:51:39.980Z,14.50
2023-01-13T17:54:07.188Z,15.50
2023-01-13T17:56:34.103Z,13.60
2023-01-13T17:59:01.019Z,15.60
2023-01-13T18:01:30.946Z,15.10
2023-01-13T18:03:57.998Z,16.80
2023-01-13T18:06:25.103Z,19.40
2023-01-13T18:08:52.074Z,13.40
2023-01-13T18:11:20.343Z,16.60
2023-01-13T18:13:48.444Z,15.00
2023-01-13T18:16:17.271Z,14.50
2023-01-13T18:18:45.547Z,13.30
2023-01-13T18:21:36.894Z,14.80
2023-01-13T18:24:23.117Z,15.10
2023-01-13T18:27:08.906Z,14.60
2023-01-13T18:29:35.858Z,14.80
2023-01-13T18:32:02.818Z,15.30
2023-01-13T18:34:29.797Z,14.30
2023-01-13T18:36:56.846Z,14.90
2023-01-13T18:39:23.834Z,14.70
2023-01-13T18:42:09.633Z,13.50
2023-01-13T18:44:36.588Z,15.50
2023-01-13T18:47:03.583Z,14.40
2023-01-13T18:49:30.587Z,15.80
2023-01-13T18:51:57.552Z,14.70
2023-01-13T18:54:24.576Z,15.70
2023-01-13T18:56:51.563Z,12.80
2023-01-13T18:59:18.523Z,14.20
2023-01-13T19:01:45.626Z,16.00
2023-01-13T19:04:16.709Z,15.80
2023-01-13T19:06:49.227Z,15.00
2023-01-13T19:09:16.877Z,16.10
2023-01-13T19:11:46.737Z,14.50
2023-01-13T19:14:34.201Z,14.60
2023-01-13T19:17:02.935Z,15.90
2023-01-13T19:19:30.321Z,15.20
2023-01-13T19:21:57.300Z,14.80
2023-01-13T19:24:26.303Z,15.10
2023-01-13T19:26:54.813Z,15.40
2023-01-13T19:29:22.022Z,15.10
2023-01-13T19:31:49.146Z,14.60
2023-01-13T19:34:16.496Z,14.50
2023-01-13T19:36:43.537Z,14.90
2023-01-13T19:39:10.544Z,12.90
2023-01-13T19:41:56.125Z,13.40
2023-01-13T19:44:41.894Z,13.60
2023-01-13T19:47:08.829Z,12.90
2023-01-13T19:49:35.881Z,15.60
2023-01-13T19:52:02.914Z,17.00
2023-01-13T19:54:30.105Z,15.00
